Time;durP1;ratioP1;P1;durP2;ratioP2;P2;SDS_P1;SDS_P2;PMS_P1;PMS_P2;Temp;Humidity;BMP_temperature;BMP_pressure;BME280_temperature;BME280_humidity;BME280_pressure;Samples;Min_cycle;Max_cycle;Signal;HPM_P1;HPM_P2
2024/01/22 00:03:18;;;;;;;16.70;6.90;;;;;;;-0.11;63.23;99566.83;436208;1261;110189;-40
2024/01/22 00:23:32;;;;;;;15.00;6.50;;;;;;;-0.24;62.74;99515.02;436590;1254;107424;-40
2024/01/22 00:33:39;;;;;;;20.10;7.50;;;;;;;-0.30;62.95;99509.66;436446;1254;98178;-40
2024/01/22 00:43:46;;;;;;;11.80;6.80;;;;;;;-0.33;62.92;99477.88;436423;1254;110557;-40
2024/01/22 00:53:52;;;;;;;14.40;7.80;;;;;;;-0.40;63.25;99469.29;436070;1248;768792;-38
2024/01/22 01:03:59;;;;;;;11.10;6.30;;;;;;;-0.38;63.29;99462.58;436792;1252;97944;-39
2024/01/22 01:14:08;;;;;;;14.40;7.10;;;;;;;-0.32;63.05;99448.69;436507;1248;110515;-39
2024/01/22 01:24:16;;;;;;;12.00;6.80;;;;;;;-0.30;63.10;99428.77;436462;1253;108674;-39
2024/01/22 01:34:23;;;;;;;11.80;6.30;;;;;;;-0.23;62.61;99416.65;436539;1252;97356;-39
2024/01/22 01:44:31;;;;;;;15.50;6.70;;;;;;;-0.19;62.34;99411.46;436494;1254;110141;-39
2024/01/22 01:54:39;;;;;;;14.30;6.70;;;;;;;-0.21;62.37;99413.04;436359;1251;106700;-38
2024/01/22 02:04:47;;;;;;;11.00;6.00;;;;;;;-0.20;62.44;99417.08;436463;1251;97745;-38
2024/01/22 02:14:54;;;;;;;11.50;6.30;;;;;;;-0.15;61.88;99409.84;436470;1248;97980;-38
2024/01/22 02:25:01;;;;;;;13.20;6.40;;;;;;;-0.10;61.70;99405.23;436497;1252;109313;-40
2024/01/22 02:35:09;;;;;;;15.20;6.20;;;;;;;-0.13;61.30;99398.94;436648;1247;107293;-39
2024/01/22 02:45:16;;;;;;;8.90;5.50;;;;;;;-0.04;60.43;99390.62;436595;1247;97894;-39
2024/01/22 02:55:23;;;;;;;10.10;4.40;;;;;;;0.02;60.19;99373.43;437430;1249;97872;-39
2024/01/22 03:05:30;;;;;;;13.40;5.20;;;;;;;0.05;59.34;99364.16;436511;1251;112072;-39
2024/01/22 03:15:38;;;;;;;13.00;6.80;;;;;;;0.08;59.13;99347.94;436437;1251;108354;-40
2024/01/22 03:25:45;;;;;;;18.00;7.80;;;;;;;0.11;58.69;99350.55;436357;1251;97896;-39
2024/01/22 03:35:51;;;;;;;15.60;7.90;;;;;;;0.04;59.05;99359.51;436306;1251;97874;-40
2024/01/22 03:45:59;;;;;;;17.40;7.80;;;;;;;-0.05;59.21;99349.25;436366;1251;109989;-42
2024/01/22 04:06:12;;;;;;;11.20;5.80;;;;;;;-0.10;58.68;99314.09;436563;1248;97896;-39
2024/01/22 04:16:20;;;;;;;13.60;6.70;;;;;;;-0.09;58.36;99287.10;436460;1248;97573;-39
2024/01/22 04:26:27;;;;;;;10.00;5.10;;;;;;;-0.06;58.11;99285.42;436347;1251;110273;-38
2024/01/22 04:36:33;;;;;;;11.50;5.80;;;;;;;-0.11;57.60;99266.00;436548;1251;108019;-40
2024/01/22 04:46:40;;;;;;;15.10;7.10;;;;;;;-0.14;57.65;99246.70;436392;1251;108724;-41
2024/01/22 04:56:48;;;;;;;18.70;6.10;;;;;;;-0.15;56.80;99233.63;436444;1253;97915;-39
2024/01/22 05:06:55;;;;;;;9.40;5.50;;;;;;;-0.11;56.26;99216.58;436451;1251;110998;-40
2024/01/22 05:37:17;;;;;;;11.30;5.70;;;;;;;-0.22;56.51;99202.90;436433;1251;97864;-39
2024/01/22 05:47:24;;;;;;;16.50;6.60;;;;;;;-0.21;56.28;99159.73;436368;1247;110288;-40
2024/01/22 05:57:29;;;;;;;10.80;5.60;;;;;;;-0.15;55.79;99138.47;436409;1251;108267;-39
2024/01/22 06:07:35;;;;;;;16.50;7.20;;;;;;;-0.06;55.26;99119.59;436519;1251;97899;-40
2024/01/22 06:17:43;;;;;;;14.20;5.70;;;;;;;0.10;54.88;99110.92;436385;1251;97669;-39
2024/01/22 06:27:49;;;;;;;15.20;6.70;;;;;;;0.14;54.86;99107.20;436582;1251;109676;-38
2024/01/22 06:37:55;;;;;;;17.00;7.10;;;;;;;0.21;55.18;99095.36;436365;1251;107792;-39
2024/01/22 06:58:09;;;;;;;13.90;6.20;;;;;;;0.56;53.83;99070.05;436575;1251;97851;-40
2024/01/22 07:08:17;;;;;;;16.30;7.30;;;;;;;0.74;53.19;99061.80;436438;1253;110546;-39
2024/01/22 07:18:25;;;;;;;14.90;7.40;;;;;;;0.94;52.88;99043.42;436407;1251;107719;-39
2024/01/22 07:28:33;;;;;;;19.70;9.90;;;;;;;1.19;52.22;99038.00;436592;1251;96689;-40
2024/01/22 07:38:40;;;;;;;19.90;8.90;;;;;;;1.46;52.56;99022.73;436466;1251;97877;-40
2024/01/22 07:48:47;;;;;;;16.50;7.50;;;;;;;1.91;51.73;99014.86;436398;1251;110357;-40
2024/01/22 07:58:54;;;;;;;22.30;8.90;;;;;;;1.91;50.51;99005.39;436574;1247;107345;-39
2024/01/22 08:09:03;;;;;;;18.80;9.30;;;;;;;2.28;50.07;98992.30;436464;1251;97909;-39
2024/01/22 08:19:09;;;;;;;15.60;8.20;;;;;;;2.78;49.16;98970.70;436698;1251;97899;-40
2024/01/22 08:29:16;;;;;;;18.10;9.20;;;;;;;3.79;48.61;98949.39;436363;1251;113849;-39
2024/01/22 08:49:29;;;;;;;17.10;8.00;;;;;;;4.05;46.13;98935.73;436621;1251;96673;-39
2024/01/22 08:59:37;;;;;;;20.60;9.60;;;;;;;3.28;46.52;98931.27;436510;1251;97868;-41
2024/01/22 09:09:44;;;;;;;14.10;7.40;;;;;;;2.89;47.14;98929.96;436361;1251;109109;-40
2024/01/22 09:19:51;;;;;;;16.20;7.80;;;;;;;2.98;47.78;98924.41;436849;1251;107519;-39
2024/01/22 10:00:35;;;;;;;15.10;7.40;;;;;;;4.09;45.26;98874.42;436393;1251;109412;-40
2024/01/22 10:10:43;;;;;;;11.70;4.20;;;;;;;4.23;45.19;98865.18;436321;1247;107351;-40
2024/01/22 10:31:04;;;;;;;8.10;4.50;;;;;;;4.44;43.79;98835.38;436294;1251;110141;-40
2024/01/22 10:41:16;;;;;;;7.80;4.80;;;;;;;4.66;42.81;98820.36;436474;1247;107761;-39
2024/01/22 11:01:31;;;;;;;8.20;4.60;;;;;;;4.74;40.88;98752.95;436560;1253;96607;-39
2024/01/22 11:21:46;;;;;;;12.80;5.60;;;;;;;4.70;42.13;98747.58;436421;1247;108192;-41
2024/01/22 11:31:52;;;;;;;8.10;5.20;;;;;;;4.89;42.19;98784.50;436472;1253;97858;-39
2024/01/22 11:41:59;;;;;;;7.00;4.20;;;;;;;5.02;41.82;98745.30;436491;1253;96975;-39
2024/01/22 11:52:10;;;;;;;9.00;3.80;;;;;;;5.16;40.58;98718.05;436653;1253;109562;-40
2024/01/22 12:12:23;;;;;;;8.70;4.20;;;;;;;5.14;40.55;98681.09;436369;1253;97464;-39
2024/01/22 12:22:30;;;;;;;8.60;4.70;;;;;;;5.12;40.23;98688.51;436307;1247;97467;-40
2024/01/22 12:32:38;;;;;;;10.80;5.30;;;;;;;4.92;40.76;98688.91;436568;1253;110127;-38
2024/01/22 12:52:49;;;;;;;14.90;6.70;;;;;;;4.44;42.03;98694.46;436181;1253;528786;-39
2024/01/22 13:02:57;;;;;;;11.20;5.90;;;;;;;4.27;42.37;98669.27;436530;1247;96661;-38
2024/01/22 13:33:16;;;;;;;11.10;5.60;;;;;;;3.99;43.00;98617.36;436425;1252;97710;-39
2024/01/22 14:03:36;;;;;;;15.30;6.80;;;;;;;3.69;44.31;98658.52;436550;1247;110818;-40
2024/01/22 14:13:41;;;;;;;13.10;6.30;;;;;;;3.30;47.05;98633.27;436376;1254;96618;-38
2024/01/22 14:23:45;;;;;;;17.60;7.60;;;;;;;2.91;49.54;98585.71;436506;1253;96624;-40
2024/01/22 14:33:53;;;;;;;10.90;6.10;;;;;;;2.72;51.38;98549.44;436324;1251;108048;-39
2024/01/22 14:43:59;;;;;;;14.40;7.60;;;;;;;2.80;51.57;98503.61;436588;1248;107412;-39
2024/01/22 15:14:21;;;;;;;14.30;7.60;;;;;;;3.07;50.24;98489.02;436615;1253;107038;-39
2024/01/22 15:24:29;;;;;;;15.10;7.10;;;;;;;3.07;50.65;98520.77;437370;1248;108804;-38
2024/01/22 15:34:37;;;;;;;15.90;8.30;;;;;;;2.96;51.06;98503.20;437513;1253;98391;-39
2024/01/22 15:44:44;;;;;;;15.00;7.90;;;;;;;2.89;51.71;98494.93;436361;1253;109406;-39
2024/01/22 16:04:56;;;;;;;18.50;7.60;;;;;;;3.03;51.47;98463.27;436561;1254;96634;-39
2024/01/22 16:15:02;;;;;;;14.20;6.70;;;;;;;3.20;50.64;98433.96;436703;1253;97984;-41
2024/01/22 16:25:10;;;;;;;16.00;7.60;;;;;;;3.30;49.99;98428.91;436474;1251;110418;-39
2024/01/22 16:35:17;;;;;;;15.20;7.60;;;;;;;3.34;50.06;98424.96;436543;1248;108547;-39
2024/01/22 16:45:23;;;;;;;18.00;7.60;;;;;;;3.29;49.67;98424.17;436503;1261;96996;-38
2024/01/22 16:55:30;;;;;;;12.70;7.00;;;;;;;3.29;49.03;98419.23;436515;1251;97822;-39
2024/01/22 17:05:35;;;;;;;16.40;7.30;;;;;;;3.22;48.93;98413.71;436208;1252;110690;-40
2024/01/22 17:25:45;;;;;;;13.70;7.50;;;;;;;3.06;49.52;98399.80;436338;1261;97871;-38
2024/01/22 17:35:50;;;;;;;10.50;6.30;;;;;;;2.97;50.02;98402.23;436295;1252;97883;-40
2024/01/22 17:45:55;;;;;;;18.40;8.70;;;;;;;2.96;50.37;98392.66;436431;1248;107921;-38
2024/01/22 18:06:08;;;;;;;20.60;10.60;;;;;;;2.96;51.13;98403.77;436468;1250;97892;-39
2024/01/22 18:26:21;;;;;;;23.30;10.40;;;;;;;2.91;52.03;98405.13;436477;1248;108284;-38
2024/01/22 18:36:28;;;;;;;19.50;9.30;;;;;;;2.89;52.31;98428.01;436367;1252;97870;-37
2024/01/22 18:46:36;;;;;;;17.70;9.30;;;;;;;2.85;52.87;98402.33;436488;1253;97883;-39
2024/01/22 19:06:48;;;;;;;17.30;10.40;;;;;;;2.81;53.84;98371.57;436461;1248;108584;-39
2024/01/22 19:16:54;;;;;;;23.00;10.40;;;;;;;2.81;54.47;98371.17;436368;1251;96653;-39
2024/01/22 19:27:00;;;;;;;21.60;11.40;;;;;;;2.83;55.16;98385.29;436446;1251;97476;-39
2024/01/22 19:37:07;;;;;;;20.80;10.10;;;;;;;2.78;55.81;98396.94;436357;1261;109752;-39
2024/01/22 19:47:14;;;;;;;21.60;11.10;;;;;;;2.76;56.80;98395.80;436545;1251;107720;-39
2024/01/22 19:57:19;;;;;;;22.00;11.80;;;;;;;2.76;57.52;98401.70;436456;1261;109240;-38
2024/01/22 20:07:27;;;;;;;23.60;11.90;;;;;;;2.79;58.71;98403.42;436535;1251;98092;-40
2024/01/22 20:17:34;;;;;;;25.40;12.70;;;;;;;2.79;59.51;98410.23;436527;1247;110019;-39
2024/01/22 20:27:42;;;;;;;28.30;14.90;;;;;;;2.77;61.05;98419.63;436398;1251;107677;-39
2024/01/22 20:37:48;;;;;;;24.10;13.90;;;;;;;2.74;62.10;98423.82;436913;1248;108287;-39
2024/01/22 20:47:55;;;;;;;28.00;13.80;;;;;;;2.70;63.31;98423.66;436492;1248;96937;-39
2024/01/22 21:08:08;;;;;;;25.50;13.60;;;;;;;2.68;64.98;98429.98;436463;1251;108078;-39
2024/01/22 21:18:14;;;;;;;28.50;16.10;;;;;;;2.67;66.16;98442.73;437045;1251;96648;-40
2024/01/22 21:28:20;;;;;;;35.60;18.20;;;;;;;2.61;67.20;98454.55;437782;1248;97481;-39
2024/01/22 21:38:27;;;;;;;30.10;16.90;;;;;;;2.55;67.68;98458.60;437488;1251;110104;-38
2024/01/22 21:48:33;;;;;;;28.60;14.90;;;;;;;2.56;68.00;98466.61;436969;1251;108366;-39
2024/01/22 22:08:47;;;;;;;31.20;18.10;;;;;;;2.57;68.91;98476.59;436844;1251;110637;-39
2024/01/22 22:18:53;;;;;;;39.40;20.50;;;;;;;2.46;69.66;98486.29;436365;1254;108387;-39
2024/01/22 22:29:01;;;;;;;34.80;17.60;;;;;;;2.30;70.21;98499.20;436705;1248;118335;-39
2024/01/22 22:59:20;;;;;;;40.20;23.60;;;;;;;2.10;72.18;98500.60;436498;1251;97870;-39
2024/01/22 23:09:27;;;;;;;29.00;19.00;;;;;;;2.03;73.48;98507.45;436404;1251;111498;-40
2024/01/22 23:19:34;;;;;;;30.10;17.80;;;;;;;2.02;73.59;98517.67;436960;1250;107250;-39
2024/01/22 23:29:41;;;;;;;39.80;23.00;;;;;;;1.93;75.27;98527.04;436553;1250;97854;-38
2024/01/22 23:49:55;;;;;;;27.90;18.00;;;;;;;1.69;77.28;98535.27;436570;1248;108156;-38
